Time;durP1;ratioP1;P1;durP2;ratioP2;P2;SDS_P1;SDS_P2;PMS_P1;PMS_P2;Temp;Humidity;BMP_temperature;BMP_pressure;BME280_temperature;BME280_humidity;BME280_pressure;Samples;Min_cycle;Max_cycle;Signal;HPM_P1;HPM_P2
2023/05/11 00:02:11;;;;;;;4.78;4.30;;;;;;;12.53;98.44;101459.19;5018419;28;20268;-74
2023/05/11 00:04:36;;;;;;;4.32;3.95;;;;;;;12.52;98.78;101460.97;5018208;28;20258;-74
2023/05/11 00:07:02;;;;;;;4.78;4.38;;;;;;;12.52;98.58;101455.72;5018280;28;20072;-74
2023/05/11 00:09:27;;;;;;;4.53;4.13;;;;;;;12.52;98.51;101455.72;5018144;28;20038;-74
2023/05/11 00:11:53;;;;;;;4.50;4.20;;;;;;;12.52;98.53;101462.75;5018113;28;20233;-74
2023/05/11 00:14:18;;;;;;;5.78;4.28;;;;;;;12.51;98.58;101456.63;5017971;28;20042;-74
2023/05/11 00:16:44;;;;;;;4.78;4.38;;;;;;;12.49;98.80;101459.28;5018831;28;20093;-74
2023/05/11 00:19:09;;;;;;;4.40;3.92;;;;;;;12.49;98.61;101450.56;5037086;28;20057;-74
2023/05/11 00:21:35;;;;;;;4.45;4.05;;;;;;;12.48;98.80;101462.84;5033611;28;20044;-74
2023/05/11 00:24:00;;;;;;;5.03;4.38;;;;;;;12.48;98.69;101457.59;5017863;28;20033;-74
2023/05/11 00:26:26;;;;;;;4.50;4.10;;;;;;;12.48;98.75;101456.75;5017535;28;20108;-74
2023/05/11 00:28:51;;;;;;;4.13;3.83;;;;;;;12.47;98.89;101458.50;5017511;28;20445;-74
2023/05/11 00:31:16;;;;;;;5.03;4.35;;;;;;;12.47;98.60;101460.28;5017777;28;20064;-74
2023/05/11 00:33:42;;;;;;;4.70;4.30;;;;;;;12.47;99.00;101453.25;5017513;28;20038;-74
2023/05/11 00:36:07;;;;;;;4.97;4.47;;;;;;;12.47;98.94;101460.28;5016597;28;20056;-74
2023/05/11 00:38:35;;;;;;;4.40;4.00;;;;;;;12.46;99.02;101459.44;5015894;28;20056;-74
2023/05/11 00:41:01;;;;;;;4.60;4.20;;;;;;;12.45;98.62;101462.97;5017890;28;20092;-74
2023/05/11 00:43:26;;;;;;;4.65;4.25;;;;;;;12.45;98.75;101465.59;5017271;28;20092;-74
2023/05/11 00:45:52;;;;;;;4.65;4.22;;;;;;;12.44;99.01;101463.91;5017240;28;20038;-74
2023/05/11 00:48:17;;;;;;;5.22;4.72;;;;;;;12.44;99.15;101463.00;5017222;28;20045;-74
2023/05/11 00:50:43;;;;;;;5.03;4.63;;;;;;;12.44;98.97;101465.66;5016944;28;20091;-74
2023/05/11 00:53:10;;;;;;;5.68;5.18;;;;;;;12.43;99.17;101459.53;5017417;28;20332;-74
2023/05/11 00:55:36;;;;;;;5.93;5.40;;;;;;;12.43;98.87;101462.16;5017490;28;20292;-74
2023/05/11 00:58:04;;;;;;;5.40;4.93;;;;;;;12.43;99.02;101463.94;5017355;28;20037;-74
2023/05/11 01:03:51;;;;;;;5.55;4.97;;;;;;;12.42;99.34;101468.31;4883570;28;20037;-73
2023/05/11 01:06:28;;;;;;;5.80;5.30;;;;;;;12.42;99.16;101470.09;5028866;28;20037;-73
2023/05/11 01:09:08;;;;;;;5.18;4.78;;;;;;;12.40;98.98;101472.78;5028136;28;20241;-73
2023/05/11 01:11:46;;;;;;;6.00;5.28;;;;;;;12.41;99.00;101471.03;5016855;28;20037;-73
2023/05/11 01:14:19;;;;;;;6.10;5.55;;;;;;;12.39;99.24;101468.47;5017377;28;20068;-73
2023/05/11 01:16:48;;;;;;;5.78;5.20;;;;;;;12.39;99.38;101459.75;5017462;28;20123;-73
2023/05/11 01:19:40;;;;;;;6.90;6.20;;;;;;;12.39;99.23;101463.22;5017300;28;20376;-73
2023/05/11 01:22:32;;;;;;;5.82;5.30;;;;;;;12.38;99.28;101464.13;5017240;28;20069;-73
2023/05/11 01:25:17;;;;;;;6.95;6.20;;;;;;;12.38;99.55;101464.13;5017229;28;20056;-73
2023/05/11 01:28:12;;;;;;;7.40;6.60;;;;;;;12.37;99.64;101457.16;5015579;28;21000;-73
2023/05/11 01:30:59;;;;;;;6.50;5.80;;;;;;;12.38;99.48;101460.63;5020358;28;20037;-73
2023/05/11 01:33:29;;;;;;;6.63;5.95;;;;;;;12.38;99.67;101461.47;5020838;28;20046;-73
2023/05/11 01:36:02;;;;;;;6.60;5.78;;;;;;;12.37;99.79;101453.66;5019605;28;20344;-73
2023/05/11 01:38:33;;;;;;;6.78;6.18;;;;;;;12.37;99.39;101453.66;5020839;28;20037;-73
2023/05/11 01:41:00;;;;;;;7.70;6.30;;;;;;;12.38;99.72;101455.38;5020550;28;20034;-73
2023/05/11 01:43:27;;;;;;;6.65;5.95;;;;;;;12.36;99.82;101455.44;5020524;28;20065;-73
2023/05/11 01:45:57;;;;;;;7.30;6.40;;;;;;;12.36;99.77;101450.19;5020489;28;20244;-73
2023/05/11 01:48:26;;;;;;;6.75;6.10;;;;;;;12.36;99.65;101454.59;5020326;28;20041;-73
2023/05/11 01:50:56;;;;;;;6.90;6.20;;;;;;;12.36;99.51;101457.22;5019024;28;20590;-73
2023/05/11 01:53:22;;;;;;;6.75;6.07;;;;;;;12.35;99.44;101461.63;5020030;28;20416;-73
2023/05/11 01:55:50;;;;;;;8.48;6.75;;;;;;;12.36;99.62;101459.84;5018230;28;20336;-73
2023/05/11 01:58:17;;;;;;;7.38;6.57;;;;;;;12.36;99.48;101459.84;5019784;28;20053;-73
2023/05/11 02:00:44;;;;;;;7.90;6.65;;;;;;;12.36;99.53;101465.09;5019975;28;20109;-73
2023/05/11 02:03:10;;;;;;;7.90;6.65;;;;;;;12.35;99.88;101469.50;5020091;28;20056;-72
2023/05/11 02:05:35;;;;;;;7.28;6.57;;;;;;;12.36;99.51;101470.34;5019143;28;20349;-72
2023/05/11 02:08:04;;;;;;;8.00;6.50;;;;;;;12.35;99.68;101466.00;5020099;28;20109;-72
2023/05/11 02:10:32;;;;;;;7.78;6.93;;;;;;;12.35;99.93;101468.63;5020021;28;20065;-72
2023/05/11 02:12:58;;;;;;;10.40;7.28;;;;;;;12.34;99.62;101465.16;5018587;28;20045;-72
2023/05/11 02:15:25;;;;;;;7.47;6.72;;;;;;;12.34;99.94;101465.16;5019638;28;20037;-72
2023/05/11 02:17:52;;;;;;;8.13;7.03;;;;;;;12.35;99.63;101466.00;5019941;28;20345;-72
2023/05/11 02:20:18;;;;;;;8.15;7.15;;;;;;;12.34;99.58;101470.41;5019399;28;20041;-72
2023/05/11 02:22:45;;;;;;;10.48;7.55;;;;;;;12.34;99.68;101465.16;5019941;28;20038;-72
2023/05/11 02:25:11;;;;;;;10.82;8.18;;;;;;;12.33;99.90;101473.94;5019172;28;20048;-72
2023/05/11 02:27:37;;;;;;;11.10;8.95;;;;;;;12.33;100.00;101473.09;5019426;28;20056;-72
2023/05/11 02:30:07;;;;;;;10.93;8.15;;;;;;;12.32;100.00;101476.66;5019237;28;20109;-72
2023/05/11 02:32:35;;;;;;;11.05;8.85;;;;;;;12.32;100.00;101476.66;5019499;28;20372;-72
2023/05/11 02:35:06;;;;;;;11.63;8.82;;;;;;;12.32;100.00;101476.66;5019866;28;20236;-72
2023/05/11 02:37:33;;;;;;;9.27;7.78;;;;;;;12.31;100.00;101481.03;5019598;28;20379;-72
2023/05/11 02:40:09;;;;;;;9.02;7.57;;;;;;;12.32;100.00;101474.88;5017814;28;20105;-72
2023/05/11 02:42:38;;;;;;;11.52;8.20;;;;;;;12.31;100.00;101478.38;5020648;28;20042;-74
2023/05/11 02:45:06;;;;;;;;;;;;;;;12.32;100.00;101474.03;5019712;28;20041;-74
2023/05/11 02:47:44;;;;;;;8.82;7.90;;;;;;;12.32;100.00;101480.13;5019482;28;19954;-74
2023/05/11 02:50:11;;;;;;;7.82;7.03;;;;;;;12.31;100.00;101477.53;5019275;28;20041;-74
2023/05/11 02:52:42;;;;;;;9.75;7.18;;;;;;;12.32;100.00;101479.28;5019239;28;20069;-74
2023/05/11 02:55:09;;;;;;;11.88;8.07;;;;;;;12.31;100.00;101475.75;5018978;28;20076;-74
2023/05/11 02:57:35;;;;;;;14.70;9.80;;;;;;;12.28;100.00;101471.50;5018922;28;20404;-74
2023/05/11 03:00:01;;;;;;;14.77;10.27;;;;;;;12.26;100.00;101473.31;5019116;28;20292;-74
2023/05/11 03:02:26;;;;;;;21.60;12.73;;;;;;;12.26;100.00;101473.31;5018849;28;20033;-74
2023/05/11 03:04:51;;;;;;;18.05;10.65;;;;;;;12.23;100.00;101473.44;5018367;28;20049;-74
2023/05/11 03:07:17;;;;;;;13.55;9.43;;;;;;;12.24;100.00;101479.53;5010736;28;20045;-74
2023/05/11 03:09:42;;;;;;;16.73;10.00;;;;;;;12.23;100.00;101472.59;5013681;28;20068;-74
2023/05/11 03:12:08;;;;;;;12.82;8.82;;;;;;;12.23;100.00;101481.31;5019035;28;20038;-74
2023/05/11 03:14:35;;;;;;;14.13;9.32;;;;;;;12.24;100.00;101475.16;5018420;28;20351;-74
2023/05/11 03:17:01;;;;;;;12.75;9.02;;;;;;;12.25;100.00;101471.59;5019107;28;20092;-74
2023/05/11 03:19:27;;;;;;;12.63;8.30;;;;;;;12.26;100.00;101477.69;5018590;28;20264;-74
2023/05/11 03:21:55;;;;;;;11.80;8.18;;;;;;;12.26;100.00;101473.31;5018900;28;20038;-74
2023/05/11 03:24:20;;;;;;;9.63;7.90;;;;;;;12.26;100.00;101473.31;5018591;28;20070;-74
2023/05/11 03:26:47;;;;;;;9.65;7.47;;;;;;;12.27;100.00;101471.56;5018691;28;20367;-74
2023/05/11 03:29:13;;;;;;;12.63;8.90;;;;;;;12.28;100.00;101465.41;5018385;28;20030;-74
2023/05/11 03:31:38;;;;;;;10.27;7.75;;;;;;;12.27;100.00;101467.16;5018104;28;20041;-74
2023/05/11 03:34:04;;;;;;;11.05;8.25;;;;;;;12.28;100.00;101466.25;5018518;28;20045;-74
2023/05/11 03:36:32;;;;;;;8.60;7.70;;;;;;;12.27;100.00;101467.16;5018387;28;20231;-74
2023/05/11 03:38:58;;;;;;;10.02;7.63;;;;;;;12.28;100.00;101460.16;5018593;28;20152;-74
2023/05/11 03:41:26;;;;;;;9.85;8.10;;;;;;;12.28;100.00;101463.63;5017786;28;20340;-74
2023/05/11 03:43:54;;;;;;;11.27;7.50;;;;;;;12.27;100.00;101461.91;5018157;28;20037;-74
2023/05/11 03:46:22;;;;;;;11.70;8.35;;;;;;;12.28;100.00;101460.16;5017785;28;20038;-74
2023/05/11 03:48:48;;;;;;;12.15;8.07;;;;;;;12.28;100.00;101462.78;5018298;28;20038;-74
2023/05/11 03:51:14;;;;;;;10.27;8.27;;;;;;;12.28;100.00;101463.63;5017055;28;20084;-74
2023/05/11 03:53:40;;;;;;;10.05;7.65;;;;;;;12.28;100.00;101455.75;5017778;28;20041;-74
2023/05/11 03:56:06;;;;;;;8.32;6.97;;;;;;;12.27;100.00;101459.28;5017955;28;20112;-74
2023/05/11 03:58:32;;;;;;;10.25;7.45;;;;;;;12.27;100.00;101454.00;5018397;28;20056;-74
2023/05/11 04:00:58;;;;;;;11.57;7.63;;;;;;;12.27;100.00;101451.38;5017666;28;20045;-74
2023/05/11 04:03:23;;;;;;;11.00;8.13;;;;;;;12.27;100.00;101451.38;5017254;28;20056;-74
2023/05/11 04:05:49;;;;;;;12.93;8.73;;;;;;;12.26;100.00;101448.81;5017319;28;20050;-74
2023/05/11 04:08:14;;;;;;;10.98;8.07;;;;;;;12.27;100.00;101447.91;5017961;28;20037;-74
2023/05/11 04:10:40;;;;;;;12.73;8.52;;;;;;;12.27;100.00;101454.00;5017021;28;20397;-74
2023/05/11 04:13:05;;;;;;;10.50;8.13;;;;;;;12.27;100.00;101461.03;5016652;28;20041;-74
2023/05/11 04:15:31;;;;;;;11.90;8.48;;;;;;;12.28;100.00;101462.78;5015531;28;20061;-74
2023/05/11 04:17:56;;;;;;;11.13;8.27;;;;;;;12.27;100.00;101461.03;5017750;28;20041;-74
2023/05/11 04:20:21;;;;;;;11.80;8.63;;;;;;;12.27;100.00;101467.16;5017265;28;20042;-74
2023/05/11 04:22:47;;;;;;;10.65;8.00;;;;;;;12.27;100.00;101469.78;5017559;28;20351;-74
2023/05/11 04:25:13;;;;;;;12.05;8.15;;;;;;;12.27;100.00;101469.78;5017157;28;20065;-74
2023/05/11 04:27:38;;;;;;;12.40;8.27;;;;;;;12.27;100.00;101466.31;5017082;28;20107;-74
2023/05/11 04:30:05;;;;;;;13.77;9.35;;;;;;;12.28;100.00;101468.03;5017235;28;20280;-74
2023/05/11 04:32:30;;;;;;;12.73;8.77;;;;;;;12.28;100.00;101470.66;5016195;28;20058;-74
2023/05/11 04:34:56;;;;;;;10.38;7.97;;;;;;;12.27;100.00;101477.66;5017340;28;20065;-74
2023/05/11 04:37:21;;;;;;;13.38;9.50;;;;;;;12.26;100.00;101462.81;5016954;28;20049;-74
2023/05/11 04:39:47;;;;;;;12.25;8.13;;;;;;;12.28;100.00;101468.03;5017207;28;20050;-74
2023/05/11 04:42:12;;;;;;;12.48;9.00;;;;;;;12.28;100.00;101471.50;5017139;28;20050;-74
2023/05/11 04:44:38;;;;;;;12.38;8.82;;;;;;;12.29;100.00;101477.59;5017122;28;20033;-74
2023/05/11 04:47:03;;;;;;;15.00;9.48;;;;;;;12.29;100.00;101472.34;5017055;28;20036;-74
2023/05/11 04:49:29;;;;;;;16.73;10.05;;;;;;;12.29;100.00;101467.09;5017518;28;20600;-74
2023/05/11 04:51:54;;;;;;;14.35;9.73;;;;;;;12.31;100.00;101472.28;5017656;28;20077;-74
2023/05/11 04:54:20;;;;;;;15.40;10.40;;;;;;;12.30;100.00;101476.69;5017408;28;20045;-74
2023/05/11 04:56:45;;;;;;;20.05;11.95;;;;;;;12.31;100.00;101483.66;5016916;28;20048;-74
2023/05/11 04:59:10;;;;;;;22.23;13.02;;;;;;;12.31;100.00;101482.78;5017014;28;20049;-74
2023/05/11 05:01:36;;;;;;;28.27;15.70;;;;;;;12.30;100.00;101481.94;5016965;28;20088;-74
2023/05/11 05:04:01;;;;;;;21.60;13.18;;;;;;;12.29;100.00;101483.69;5021517;28;20364;-74
2023/05/11 05:06:27;;;;;;;26.27;13.95;;;;;;;12.31;100.00;101483.66;5021428;28;20042;-74
2023/05/11 05:08:52;;;;;;;31.52;16.08;;;;;;;12.29;100.00;101485.47;5020505;28;20056;-74
2023/05/11 05:11:18;;;;;;;30.67;16.45;;;;;;;12.29;100.00;101494.19;5020700;28;20041;-74
2023/05/11 05:13:43;;;;;;;28.35;15.75;;;;;;;12.29;100.00;101496.81;5020948;28;20341;-74
2023/05/11 05:16:09;;;;;;;34.20;16.52;;;;;;;12.29;100.00;101503.84;5020857;28;20025;-74
2023/05/11 05:18:34;;;;;;;29.38;15.38;;;;;;;12.28;100.00;101504.78;5020815;28;20076;-74
2023/05/11 05:21:00;;;;;;;25.58;13.80;;;;;;;12.29;100.00;101506.47;5020938;28;20042;-74
2023/05/11 05:23:25;;;;;;;23.73;13.65;;;;;;;12.29;100.00;101509.13;5019688;28;20123;-74
2023/05/11 05:25:51;;;;;;;28.73;15.93;;;;;;;12.31;100.00;101512.53;5020371;28;20061;-74
2023/05/11 05:28:16;;;;;;;26.38;14.93;;;;;;;12.33;100.00;101520.38;5020699;28;20034;-74
2023/05/11 05:30:42;;;;;;;28.60;15.38;;;;;;;12.32;100.00;101519.50;5020279;28;20057;-74
2023/05/11 05:33:07;;;;;;;29.15;15.35;;;;;;;12.32;100.00;101516.03;5019166;28;20045;-74
2023/05/11 05:35:32;;;;;;;27.25;14.75;;;;;;;12.32;100.00;101521.28;5018568;28;20029;-74
2023/05/11 05:37:58;;;;;;;26.40;13.88;;;;;;;12.31;100.00;101527.44;5019005;28;20044;-74
2023/05/11 05:40:23;;;;;;;26.30;15.02;;;;;;;12.30;100.00;101523.97;5030487;28;20241;-74
2023/05/11 05:42:48;;;;;;;25.30;13.95;;;;;;;12.30;100.00;101529.22;5006919;28;20053;-74
2023/05/11 05:45:14;;;;;;;27.10;14.63;;;;;;;12.29;100.00;101528.34;5018714;28;20100;-74
2023/05/11 05:47:39;;;;;;;33.45;16.65;;;;;;;12.29;100.00;101530.13;5019302;28;20128;-74
2023/05/11 05:50:06;;;;;;;34.20;15.65;;;;;;;12.30;100.00;101529.22;5029004;28;20275;-74
2023/05/11 05:52:32;;;;;;;34.28;17.05;;;;;;;12.29;100.00;101532.75;5020557;28;20049;-74
2023/05/11 05:54:57;;;;;;;27.55;15.13;;;;;;;12.30;100.00;101531.84;5020312;28;20253;-74
2023/05/11 05:57:23;;;;;;;27.60;15.57;;;;;;;12.32;100.00;101532.66;5019290;28;20049;-74
2023/05/11 05:59:48;;;;;;;25.25;14.52;;;;;;;12.33;100.00;101536.97;5019326;28;20050;-74
2023/05/11 06:02:14;;;;;;;26.80;14.52;;;;;;;12.34;100.00;101536.06;5020242;28;20038;-74
2023/05/11 06:04:40;;;;;;;27.35;13.27;;;;;;;12.37;100.00;101548.22;5020281;28;20062;-74
2023/05/11 06:07:06;;;;;;;24.02;13.73;;;;;;;12.39;100.00;101543.78;5020048;28;20049;-74
2023/05/11 06:09:31;;;;;;;22.67;12.95;;;;;;;12.42;100.00;101541.88;5019951;28;20061;-74
2023/05/11 06:11:57;;;;;;;26.23;13.55;;;;;;;12.42;100.00;101541.88;5020143;28;20026;-74
2023/05/11 06:14:22;;;;;;;25.05;14.75;;;;;;;12.45;100.00;101544.41;5018880;28;20683;-74
2023/05/11 06:16:48;;;;;;;28.65;15.65;;;;;;;12.46;100.00;101546.13;5018712;28;20340;-74
2023/05/11 06:19:14;;;;;;;24.05;14.07;;;;;;;12.48;100.00;101546.94;5009704;28;20126;-75
2023/05/11 06:21:41;;;;;;;27.33;14.63;;;;;;;12.49;100.00;101548.63;5002260;28;20034;-74
2023/05/11 06:24:07;;;;;;;31.15;14.80;;;;;;;12.51;100.00;101543.31;5019732;28;20038;-75
2023/05/11 06:26:33;;;;;;;27.83;15.27;;;;;;;12.54;100.00;101551.09;5018997;28;20349;-75
2023/05/11 06:28:58;;;;;;;28.50;15.65;;;;;;;12.54;100.00;101542.34;5020411;28;20256;-75
2023/05/11 06:31:23;;;;;;;33.80;14.77;;;;;;;12.56;100.00;101553.66;5019038;28;20034;-75
2023/05/11 06:33:49;;;;;;;25.55;14.43;;;;;;;12.56;100.00;101551.88;5018686;28;20353;-75
2023/05/11 06:36:15;;;;;;;28.98;14.95;;;;;;;12.58;100.00;101546.56;5019209;28;20041;-75
2023/05/11 06:38:40;;;;;;;24.92;14.10;;;;;;;12.58;100.00;101550.06;5018944;28;20056;-75
2023/05/11 06:41:06;;;;;;;27.75;14.27;;;;;;;12.59;100.00;101553.56;5018907;28;20253;-75
2023/05/11 06:43:32;;;;;;;25.67;14.13;;;;;;;12.61;100.00;101549.09;5019468;28;20037;-75
2023/05/11 06:45:57;;;;;;;31.63;17.08;;;;;;;12.61;100.00;101549.09;5018365;28;20185;-75
2023/05/11 06:48:24;;;;;;;30.80;16.75;;;;;;;12.62;100.00;101551.63;5018654;28;20400;-75
2023/05/11 06:50:50;;;;;;;32.65;17.65;;;;;;;12.63;100.00;101553.38;5018836;28;20328;-75
2023/05/11 06:53:16;;;;;;;33.30;19.00;;;;;;;12.63;100.00;101549.88;5018108;28;20026;-75
2023/05/11 06:55:42;;;;;;;25.85;15.52;;;;;;;12.64;100.00;101556.84;5016034;28;20213;-75
2023/05/11 06:58:08;;;;;;;34.67;17.70;;;;;;;12.65;100.00;101559.41;5018268;28;20048;-75
2023/05/11 07:00:33;;;;;;;38.28;18.85;;;;;;;12.69;100.00;101565.41;5018193;28;20038;-75
2023/05/11 07:02:59;;;;;;;35.17;17.25;;;;;;;12.69;100.00;101560.16;5018811;28;20109;-75
2023/05/11 07:05:24;;;;;;;32.83;17.40;;;;;;;12.72;100.00;101553.94;5018978;28;20205;-75
2023/05/11 07:07:50;;;;;;;31.80;16.95;;;;;;;12.73;100.00;101561.75;5018204;28;20068;-75
2023/05/11 07:10:16;;;;;;;39.83;18.98;;;;;;;12.76;100.00;101560.78;5017926;28;20038;-75
2023/05/11 07:12:41;;;;;;;40.72;19.23;;;;;;;12.78;100.00;101562.44;5017881;28;20041;-75
2023/05/11 07:15:08;;;;;;;37.58;19.33;;;;;;;12.81;100.00;101572.00;5012969;28;20060;-75
2023/05/11 07:17:33;;;;;;;40.47;19.67;;;;;;;12.82;100.00;101568.44;5014925;28;20297;-75
2023/05/11 07:19:58;;;;;;;37.53;18.15;;;;;;;12.85;100.00;101569.16;5018257;28;20105;-75
2023/05/11 07:22:24;;;;;;;39.65;19.75;;;;;;;12.87;100.00;101575.22;5012175;28;20139;-75
2023/05/11 07:24:49;;;;;;;35.30;19.92;;;;;;;12.90;100.00;101573.38;5015971;28;20120;-75
2023/05/11 07:27:14;;;;;;;38.00;19.23;;;;;;;12.91;100.00;101572.47;5014149;28;20057;-75
2023/05/11 07:29:40;;;;;;;44.08;20.42;;;;;;;12.92;100.00;101571.59;5017031;28;20243;-75
2023/05/11 07:32:06;;;;;;;43.22;19.10;;;;;;;12.94;100.00;101575.00;5013562;28;20038;-75
2023/05/11 07:34:31;;;;;;;43.53;20.67;;;;;;;12.97;100.00;101569.59;5015296;28;20030;-75
2023/05/11 07:36:56;;;;;;;45.60;23.42;;;;;;;12.99;100.00;101570.44;5010201;28;20394;-75
2023/05/11 07:39:22;;;;;;;49.88;24.23;;;;;;;13.03;100.00;101574.63;5016058;28;20056;-75
2023/05/11 07:41:47;;;;;;;51.45;23.63;;;;;;;13.09;100.00;101568.28;5016282;28;20033;-75
2023/05/11 07:44:13;;;;;;;49.58;22.17;;;;;;;13.09;100.00;101566.50;5018792;28;20283;-75
2023/05/11 07:46:38;;;;;;;55.40;24.85;;;;;;;13.12;100.00;101566.38;5016924;28;20271;-75
2023/05/11 07:49:04;;;;;;;61.42;24.75;;;;;;;13.14;100.00;101571.59;5016536;28;20042;-75
2023/05/11 07:51:29;;;;;;;46.42;23.38;;;;;;;13.16;100.00;101573.22;5016797;28;20313;-75
2023/05/11 07:53:55;;;;;;;47.03;23.52;;;;;;;13.19;100.00;101569.63;5015726;28;20049;-75
2023/05/11 07:56:20;;;;;;;46.67;23.48;;;;;;;13.20;100.00;101568.69;5015667;28;20127;-75
2023/05/11 07:58:45;;;;;;;39.70;22.13;;;;;;;13.19;100.00;101570.47;5017086;28;20224;-75
2023/05/11 08:01:11;;;;;;;45.05;22.50;;;;;;;13.20;100.00;101576.59;5016068;28;20049;-75
2023/05/11 08:03:36;;;;;;;38.45;20.70;;;;;;;13.19;100.00;101575.75;5017346;28;20050;-75
2023/05/11 08:06:02;;;;;;;39.00;19.65;;;;;;;13.19;100.00;101573.13;5020982;28;20340;-75
2023/05/11 08:08:29;;;;;;;39.67;21.65;;;;;;;13.20;100.00;101582.69;5028170;28;20045;-75
2023/05/11 08:10:54;;;;;;;37.80;21.15;;;;;;;13.20;100.00;101580.06;5025022;28;20553;-75
2023/05/11 08:13:20;;;;;;;36.38;19.73;;;;;;;13.20;100.00;101581.84;5032877;28;20033;-75
2023/05/11 08:15:45;;;;;;;31.90;19.33;;;;;;;13.21;100.00;101586.22;5016596;28;20104;-75
2023/05/11 08:18:11;;;;;;;38.50;20.90;;;;;;;13.18;100.00;101584.53;5017261;28;20041;-75
2023/05/11 08:20:37;;;;;;;41.80;21.48;;;;;;;13.18;100.00;101581.91;5017327;28;20042;-75
2023/05/11 08:23:03;;;;;;;35.47;20.27;;;;;;;13.18;100.00;101578.44;5016442;28;20064;-75
2023/05/11 08:25:29;;;;;;;39.78;19.60;;;;;;;13.18;100.00;101586.31;5016974;28;20038;-75
2023/05/11 08:27:54;;;;;;;28.58;18.58;;;;;;;13.19;100.00;101582.78;5016747;28;20065;-75
2023/05/11 08:30:20;;;;;;;31.15;17.10;;;;;;;13.19;100.00;101585.41;5016767;28;20116;-75
2023/05/11 08:32:45;;;;;;;33.47;19.88;;;;;;;13.20;100.00;101584.47;5017232;28;20308;-75
2023/05/11 08:35:12;;;;;;;35.80;19.63;;;;;;;13.19;100.00;101582.78;5015714;28;20399;-75
2023/05/11 08:37:37;;;;;;;27.67;17.90;;;;;;;13.19;100.00;101588.91;5015984;28;20037;-75
2023/05/11 08:40:03;;;;;;;29.40;17.33;;;;;;;13.19;100.00;101591.53;5017159;28;20363;-75
2023/05/11 08:42:33;;;;;;;24.55;17.02;;;;;;;13.19;100.00;101583.63;5017172;28;20047;-75
2023/05/11 08:45:00;;;;;;;25.77;16.20;;;;;;;13.20;100.00;101581.84;5016611;28;20045;-75
2023/05/11 08:47:27;;;;;;;24.75;16.20;;;;;;;13.19;100.00;101588.91;5016582;28;20046;-75
2023/05/11 08:49:52;;;;;;;27.90;15.23;;;;;;;13.22;100.00;101585.28;5016835;28;20056;-75
2023/05/11 08:52:18;;;;;;;30.20;17.58;;;;;;;13.24;100.00;101580.81;5017000;28;20124;-75
2023/05/11 08:54:45;;;;;;;25.10;15.20;;;;;;;13.23;100.00;101587.00;5016843;28;20077;-75
2023/05/11 08:57:12;;;;;;;31.55;17.48;;;;;;;13.22;100.00;101583.53;5016679;28;20096;-75
2023/05/11 08:59:40;;;;;;;21.13;15.45;;;;;;;13.23;100.00;101587.00;5022447;28;20051;-75
2023/05/11 09:02:13;;;;;;;30.53;18.47;;;;;;;13.23;100.00;101577.31;5016258;28;20339;-75
2023/05/11 09:04:38;;;;;;;24.38;15.55;;;;;;;13.24;100.00;101586.94;5017087;28;20293;-75
2023/05/11 09:07:04;;;;;;;33.40;17.38;;;;;;;13.25;100.00;101588.63;5017160;28;20044;-75
2023/05/11 09:09:30;;;;;;;27.08;15.43;;;;;;;13.25;100.00;101586.00;5016932;28;20592;-75
2023/05/11 09:11:55;;;;;;;21.65;14.95;;;;;;;13.27;100.00;101582.47;5016825;28;20034;-75
2023/05/11 09:14:21;;;;;;;27.00;15.07;;;;;;;13.28;100.00;101586.81;5016888;28;20415;-75
2023/05/11 09:16:46;;;;;;;27.55;16.05;;;;;;;13.31;100.00;101586.72;5016462;28;20442;-75
2023/05/11 09:19:14;;;;;;;32.92;15.30;;;;;;;13.31;100.00;101589.34;5016340;28;20271;-75
2023/05/11 09:21:40;;;;;;;24.40;14.87;;;;;;;13.34;100.00;101589.22;5013032;28;20048;-75
2023/05/11 09:24:06;;;;;;;31.98;16.23;;;;;;;13.36;100.00;101588.25;5016303;28;20041;-75
2023/05/11 09:26:32;;;;;;;29.05;14.98;;;;;;;13.39;100.00;101592.53;5019960;28;20049;-75
2023/05/11 09:28:58;;;;;;;33.00;15.77;;;;;;;13.42;100.00;101588.00;5016528;28;20036;-75
2023/05/11 09:31:38;;;;;;;27.85;15.20;;;;;;;13.49;100.00;101591.22;5016528;28;20061;-75
2023/05/11 09:34:18;;;;;;;23.30;15.13;;;;;;;13.56;100.00;101587.44;5015086;28;20052;-75
2023/05/11 09:36:45;;;;;;;21.42;13.90;;;;;;;13.58;100.00;101585.59;5016437;28;20080;-75
2023/05/11 09:39:14;;;;;;;22.08;13.77;;;;;;;13.61;100.00;101588.09;5016860;28;20085;-75
2023/05/11 09:41:40;;;;;;;25.02;14.07;;;;;;;13.64;100.00;101589.72;5016179;28;20164;-75
2023/05/11 09:44:07;;;;;;;19.52;12.38;;;;;;;13.67;100.00;101594.03;5018467;28;20038;-75
2023/05/11 09:46:34;;;;;;;25.48;14.07;;;;;;;13.69;100.00;101589.56;5015985;28;20034;-75
2023/05/11 09:49:00;;;;;;;19.73;12.32;;;;;;;13.69;100.00;101590.41;5016983;28;20044;-75
2023/05/11 09:51:35;;;;;;;19.17;12.35;;;;;;;13.70;100.00;101586.88;5019897;28;20537;-75
2023/05/11 09:54:15;;;;;;;23.40;13.95;;;;;;;13.70;100.00;101589.50;5020055;28;20104;-76
2023/05/11 09:56:46;;;;;;;23.73;14.05;;;;;;;13.71;100.00;101593.81;5018001;28;20034;-75
2023/05/11 09:59:14;;;;;;;21.92;13.55;;;;;;;13.73;100.00;101591.13;5019635;28;20038;-74
2023/05/11 10:01:40;;;;;;;23.08;13.90;;;;;;;13.71;100.00;101598.25;5019073;28;20048;-74
2023/05/11 10:04:07;;;;;;;23.00;14.02;;;;;;;13.70;100.00;101601.78;5020147;28;20337;-74
2023/05/11 10:06:47;;;;;;;15.70;11.20;;;;;;;13.69;100.00;101597.47;5015931;28;20044;-74
2023/05/11 10:09:14;;;;;;;14.82;10.52;;;;;;;13.67;100.00;101597.50;5019561;28;20053;-74
2023/05/11 10:11:43;;;;;;;12.77;9.10;;;;;;;13.68;100.00;101595.72;5032284;28;20025;-74
2023/05/11 10:14:11;;;;;;;13.10;8.65;;;;;;;13.66;100.00;101593.19;5019441;28;20061;-74
2023/05/11 10:16:39;;;;;;;8.40;7.55;;;;;;;13.66;100.00;101598.44;5019931;28;20108;-74
2023/05/11 10:19:05;;;;;;;8.13;6.82;;;;;;;13.66;100.00;101606.34;5019556;28;20385;-74
2023/05/11 10:21:32;;;;;;;8.27;7.38;;;;;;;13.65;100.00;101603.78;5019881;28;20101;-75
2023/05/11 10:23:58;;;;;;;9.40;8.10;;;;;;;13.62;100.00;101600.34;5016621;28;20448;-75
2023/05/11 10:26:24;;;;;;;17.23;11.15;;;;;;;13.61;100.00;101597.78;5019281;28;20062;-75
2023/05/11 10:28:51;;;;;;;13.70;9.80;;;;;;;13.60;100.00;101607.44;5019081;28;20049;-75
2023/05/11 10:31:22;;;;;;;9.70;7.95;;;;;;;13.60;100.00;101602.16;5019732;28;20034;-75
2023/05/11 10:33:50;;;;;;;11.43;9.02;;;;;;;13.59;100.00;101599.63;5019042;28;20229;-75
2023/05/11 10:36:17;;;;;;;15.52;10.32;;;;;;;13.59;100.00;101600.47;5018771;28;20033;-75
2023/05/11 10:38:42;;;;;;;12.02;8.88;;;;;;;13.59;100.00;101604.88;5018814;28;20052;-74
2023/05/11 10:41:23;;;;;;;15.40;12.20;;;;;;;13.59;100.00;101605.75;5019028;28;20034;-74
2023/05/11 10:44:10;;;;;;;13.20;9.77;;;;;;;13.59;100.00;101602.25;5020011;28;20052;-75
2023/05/11 10:46:41;;;;;;;7.75;6.30;;;;;;;13.58;100.00;101597.91;5018871;28;20033;-75
2023/05/11 10:49:16;;;;;;;8.30;6.43;;;;;;;13.56;100.00;101612.91;5019138;28;20046;-75
2023/05/11 10:51:44;;;;;;;6.13;5.53;;;;;;;13.57;100.00;101619.84;5018849;28;20101;-75
2023/05/11 10:54:35;;;;;;;5.72;5.20;;;;;;;13.56;100.00;101612.91;5018937;28;20033;-75
2023/05/11 10:57:43;;;;;;;4.95;4.13;;;;;;;13.57;100.00;101614.59;5018831;28;20030;-75
2023/05/11 11:00:34;;;;;;;6.38;4.10;;;;;;;13.56;100.00;101619.00;5003732;28;20182;-75
2023/05/11 11:03:09;;;;;;;4.75;4.30;;;;;;;13.56;100.00;101611.13;5019395;28;20037;-74
2023/05/11 11:05:36;;;;;;;6.40;5.53;;;;;;;13.57;100.00;101614.59;5018797;28;20037;-75
2023/05/11 11:08:07;;;;;;;6.57;5.68;;;;;;;13.56;100.00;101608.47;5019194;28;20235;-75
2023/05/11 11:10:45;;;;;;;8.27;6.93;;;;;;;13.57;100.00;101617.22;5018678;28;20038;-75
2023/05/11 11:13:12;;;;;;;6.35;5.75;;;;;;;13.59;100.00;101618.06;5018557;28;20064;-75
2023/05/11 11:15:53;;;;;;;9.05;6.47;;;;;;;13.58;100.00;101624.22;5018739;28;20044;-75